Ana Sayfa
METAR-TAF:

METAR-TAF

Havaalanları :

Kansas City, Missouri, Amerika Birleşik Devletleri

Enlem: 39-17-50N, Boylam: 094-43-50W, yükseklik: 312 m

Güncel hava durumu gözlemi

Rapor saat 03:53 UTC de 8 dakika önce yapıldı.
Rüzgar güney/güneydoğudan 6 kt
Sıcaklık 23°C
Nem 83%
Basınç 1013 hPa
Görüş mesafesi: 16.1 km
Açık gökyüzü

METAR: KMCI 240353Z 16006KT 10SM CLR 23/20 A2990 RMK AO2 SLP114 T02330200

Saat: 23:01 (04:01 UTC)

Tahmin

Rapor saat 23:20 UTC de 4 saat ve 41 dakika önce yapıldı.
Ayın 24'si saat 00 UTC'den ayın 24'si saat 24 UTC'ye kadar geçerli Tahmin
Rüzgar güney/güneydoğudan 5 kt
Görüş mesafesi: 10 km
Açık gökyüzü
Ayın 24'si saat 1500 UTC'den
Rüzgar güneydan 10 kt
Görüş mesafesi: 10 km
Açık gökyüzü
Ayın 24'si saat 1800 UTC'den
Rüzgar güney/güneybatıdan 12 kt ve 20 kt'a kadar ani rüzgarlar
Görüş mesafesi: 10 km
Açık gökyüzü

TAF: KMCI 232320Z 2400/2424 15005KT P6SM SKC FM241500 18010KT P6SM SKC FM241800 20012G20KT P6SM SKC

4.000'den fazla havaalanı için hava durumu gözlemleri ve tahminleri (METAR ve TAF raporları).

Kullanılabilir istasyonlar harita üzerinde sarı ve kırmızı noktalarla gösterilir.

İstasyonun adını görmek için fareyi noktanın üzerinde gezdirin.

Sonrasında hava gözlem ve tahminlerini görmek için tıklayın.

Haritayı değiştirmek için: yaklaştırmak için siyah artı işaretli yeşil düğmeye ve uzaklaştırmak için de eksi işaretli düğmeye hızla tıklayın; bitişik haritalar için yeşil okları kullanın.


METAR-TAF: